sensor_id;sensor_type;location;lat;lon;timestamp;P1;durP1;ratioP1;P2;durP2;ratioP2
42192;SDS011;52467;40.114;18.306;2023-02-01T00:02:29;5.18;;;1.92;;
42192;SDS011;52467;40.114;18.306;2023-02-01T00:04:56;6.85;;;2.08;;
42192;SDS011;52467;40.114;18.306;2023-02-01T00:07:23;6.35;;;2.00;;
42192;SDS011;52467;40.114;18.306;2023-02-01T00:09:51;7.25;;;2.22;;
42192;SDS011;52467;40.114;18.306;2023-02-01T00:12:18;6.47;;;1.83;;
42192;SDS011;52467;40.114;18.306;2023-02-01T00:14:46;6.88;;;1.80;;
42192;SDS011;52467;40.114;18.306;2023-02-01T00:17:15;3.90;;;1.67;;
42192;SDS011;52467;40.114;18.306;2023-02-01T00:19:42;5.87;;;1.90;;
42192;SDS011;52467;40.114;18.306;2023-02-01T00:22:09;8.52;;;2.00;;
42192;SDS011;52467;40.114;18.306;2023-02-01T00:24:37;7.25;;;1.73;;
42192;SDS011;52467;40.114;18.306;2023-02-01T00:27:04;3.77;;;1.53;;
42192;SDS011;52467;40.114;18.306;2023-02-01T00:29:31;3.88;;;1.58;;
42192;SDS011;52467;40.114;18.306;2023-02-01T00:31:59;6.68;;;1.70;;
42192;SDS011;52467;40.114;18.306;2023-02-01T00:34:27;4.90;;;1.73;;
42192;SDS011;52467;40.114;18.306;2023-02-01T00:36:54;4.43;;;1.87;;
42192;SDS011;52467;40.114;18.306;2023-02-01T00:39:21;4.85;;;1.52;;
42192;SDS011;52467;40.114;18.306;2023-02-01T00:41:49;6.00;;;1.90;;
42192;SDS011;52467;40.114;18.306;2023-02-01T00:44:16;6.88;;;1.60;;
42192;SDS011;52467;40.114;18.306;2023-02-01T00:46:43;3.63;;;1.80;;
42192;SDS011;52467;40.114;18.306;2023-02-01T00:49:11;5.07;;;1.50;;
42192;SDS011;52467;40.114;18.306;2023-02-01T00:51:38;3.45;;;1.58;;
42192;SDS011;52467;40.114;18.306;2023-02-01T00:54:05;3.15;;;1.60;;
42192;SDS011;52467;40.114;18.306;2023-02-01T00:56:33;5.10;;;1.70;;
42192;SDS011;52467;40.114;18.306;2023-02-01T00:59:00;6.38;;;1.67;;
42192;SDS011;52467;40.114;18.306;2023-02-01T01:01:28;4.43;;;1.50;;
42192;SDS011;52467;40.114;18.306;2023-02-01T01:03:56;7.78;;;1.65;;
42192;SDS011;52467;40.114;18.306;2023-02-01T01:06:29;5.70;;;1.60;;
42192;SDS011;52467;40.114;18.306;2023-02-01T01:08:57;2.85;;;1.33;;
42192;SDS011;52467;40.114;18.306;2023-02-01T01:11:27;5.07;;;1.70;;
42192;SDS011;52467;40.114;18.306;2023-02-01T01:13:56;5.63;;;1.70;;
42192;SDS011;52467;40.114;18.306;2023-02-01T01:16:25;4.80;;;1.40;;
42192;SDS011;52467;40.114;18.306;2023-02-01T01:18:54;5.78;;;1.50;;
42192;SDS011;52467;40.114;18.306;2023-02-01T01:21:22;6.88;;;1.20;;
42192;SDS011;52467;40.114;18.306;2023-02-01T01:23:50;5.20;;;1.45;;
42192;SDS011;52467;40.114;18.306;2023-02-01T01:26:18;9.38;;;1.50;;
42192;SDS011;52467;40.114;18.306;2023-02-01T01:28:48;7.13;;;1.50;;
42192;SDS011;52467;40.114;18.306;2023-02-01T01:31:16;3.53;;;1.50;;
42192;SDS011;52467;40.114;18.306;2023-02-01T01:33:48;3.85;;;1.38;;
42192;SDS011;52467;40.114;18.306;2023-02-01T01:36:19;5.05;;;1.60;;
42192;SDS011;52467;40.114;18.306;2023-02-01T01:38:47;9.15;;;1.42;;
42192;SDS011;52467;40.114;18.306;2023-02-01T01:41:16;4.00;;;1.50;;
42192;SDS011;52467;40.114;18.306;2023-02-01T01:43:55;3.35;;;1.52;;
42192;SDS011;52467;40.114;18.306;2023-02-01T01:46:26;5.50;;;1.10;;
42192;SDS011;52467;40.114;18.306;2023-02-01T01:51:36;5.57;;;1.40;;
42192;SDS011;52467;40.114;18.306;2023-02-01T01:54:11;5.25;;;1.30;;
42192;SDS011;52467;40.114;18.306;2023-02-01T01:56:45;4.47;;;1.40;;
42192;SDS011;52467;40.114;18.306;2023-02-01T01:59:15;3.72;;;1.02;;
42192;SDS011;52467;40.114;18.306;2023-02-01T02:01:43;3.30;;;1.33;;
42192;SDS011;52467;40.114;18.306;2023-02-01T02:04:10;3.95;;;1.25;;
42192;SDS011;52467;40.114;18.306;2023-02-01T02:06:49;2.63;;;1.15;;
42192;SDS011;52467;40.114;18.306;2023-02-01T02:09:26;6.18;;;1.52;;
42192;SDS011;52467;40.114;18.306;2023-02-01T02:11:54;5.65;;;1.35;;
42192;SDS011;52467;40.114;18.306;2023-02-01T02:14:21;3.97;;;1.35;;
42192;SDS011;52467;40.114;18.306;2023-02-01T02:22:38;5.43;;;1.30;;
42192;SDS011;52467;40.114;18.306;2023-02-01T02:25:34;2.65;;;1.20;;
42192;SDS011;52467;40.114;18.306;2023-02-01T02:34:26;7.57;;;1.67;;
42192;SDS011;52467;40.114;18.306;2023-02-01T02:42:44;3.40;;;1.38;;
42192;SDS011;52467;40.114;18.306;2023-02-01T02:48:51;4.40;;;1.50;;
42192;SDS011;52467;40.114;18.306;2023-02-01T02:51:25;2.92;;;1.17;;
42192;SDS011;52467;40.114;18.306;2023-02-01T02:54:16;4.85;;;1.20;;
42192;SDS011;52467;40.114;18.306;2023-02-01T02:57:06;4.72;;;1.48;;
42192;SDS011;52467;40.114;18.306;2023-02-01T02:59:56;3.85;;;1.20;;
42192;SDS011;52467;40.114;18.306;2023-02-01T03:02:44;5.05;;;1.52;;
42192;SDS011;52467;40.114;18.306;2023-02-01T03:05:32;5.25;;;1.55;;
42192;SDS011;52467;40.114;18.306;2023-02-01T03:08:05;5.20;;;1.48;;
42192;SDS011;52467;40.114;18.306;2023-02-01T03:10:40;5.40;;;1.50;;
42192;SDS011;52467;40.114;18.306;2023-02-01T03:13:33;5.63;;;1.50;;
42192;SDS011;52467;40.114;18.306;2023-02-01T03:16:20;4.40;;;1.60;;
42192;SDS011;52467;40.114;18.306;2023-02-01T03:18:58;6.30;;;1.40;;
42192;SDS011;52467;40.114;18.306;2023-02-01T03:21:40;3.15;;;1.10;;
42192;SDS011;52467;40.114;18.306;2023-02-01T03:24:15;3.58;;;1.55;;
42192;SDS011;52467;40.114;18.306;2023-02-01T03:29:39;3.63;;;1.40;;
42192;SDS011;52467;40.114;18.306;2023-02-01T03:32:22;5.03;;;1.45;;
42192;SDS011;52467;40.114;18.306;2023-02-01T03:34:50;4.95;;;1.48;;
42192;SDS011;52467;40.114;18.306;2023-02-01T03:37:21;4.20;;;1.42;;
42192;SDS011;52467;40.114;18.306;2023-02-01T03:42:40;4.88;;;1.52;;
42192;SDS011;52467;40.114;18.306;2023-02-01T03:45:13;3.08;;;1.20;;
42192;SDS011;52467;40.114;18.306;2023-02-01T03:47:46;4.05;;;1.60;;
42192;SDS011;52467;40.114;18.306;2023-02-01T03:50:17;4.22;;;1.50;;
42192;SDS011;52467;40.114;18.306;2023-02-01T03:52:51;4.05;;;1.63;;
42192;SDS011;52467;40.114;18.306;2023-02-01T03:55:22;6.13;;;1.60;;
42192;SDS011;52467;40.114;18.306;2023-02-01T03:58:12;3.67;;;1.70;;
42192;SDS011;52467;40.114;18.306;2023-02-01T04:00:50;2.97;;;1.40;;
42192;SDS011;52467;40.114;18.306;2023-02-01T04:03:23;5.65;;;1.52;;
42192;SDS011;52467;40.114;18.306;2023-02-01T04:05:52;4.10;;;1.40;;
42192;SDS011;52467;40.114;18.306;2023-02-01T04:08:23;6.38;;;1.55;;
42192;SDS011;52467;40.114;18.306;2023-02-01T04:10:50;4.57;;;1.40;;
42192;SDS011;52467;40.114;18.306;2023-02-01T04:13:17;2.45;;;1.23;;
42192;SDS011;52467;40.114;18.306;2023-02-01T04:15:46;6.30;;;1.25;;
42192;SDS011;52467;40.114;18.306;2023-02-01T04:18:16;5.30;;;1.20;;
42192;SDS011;52467;40.114;18.306;2023-02-01T04:20:43;7.32;;;1.55;;
42192;SDS011;52467;40.114;18.306;2023-02-01T04:23:11;2.50;;;1.10;;
42192;SDS011;52467;40.114;18.306;2023-02-01T04:25:38;3.25;;;1.13;;
42192;SDS011;52467;40.114;18.306;2023-02-01T04:28:06;3.72;;;1.30;;
42192;SDS011;52467;40.114;18.306;2023-02-01T04:30:35;5.05;;;1.20;;
42192;SDS011;52467;40.114;18.306;2023-02-01T04:33:03;4.85;;;1.27;;
42192;SDS011;52467;40.114;18.306;2023-02-01T04:35:33;2.50;;;1.33;;
42192;SDS011;52467;40.114;18.306;2023-02-01T04:38:00;5.00;;;1.50;;
42192;SDS011;52467;40.114;18.306;2023-02-01T04:40:28;2.70;;;1.13;;
42192;SDS011;52467;40.114;18.306;2023-02-01T04:42:55;4.70;;;1.42;;
42192;SDS011;52467;40.114;18.306;2023-02-01T04:45:22;4.32;;;1.38;;
42192;SDS011;52467;40.114;18.306;2023-02-01T04:47:50;3.10;;;1.20;;
42192;SDS011;52467;40.114;18.306;2023-02-01T04:50:17;4.60;;;1.50;;
42192;SDS011;52467;40.114;18.306;2023-02-01T04:52:44;5.30;;;1.73;;
42192;SDS011;52467;40.114;18.306;2023-02-01T04:55:12;2.53;;;1.20;;
42192;SDS011;52467;40.114;18.306;2023-02-01T04:57:42;3.67;;;1.45;;
42192;SDS011;52467;40.114;18.306;2023-02-01T05:00:09;5.33;;;1.47;;
42192;SDS011;52467;40.114;18.306;2023-02-01T05:02:37;4.23;;;1.23;;
42192;SDS011;52467;40.114;18.306;2023-02-01T05:05:05;3.50;;;1.50;;
42192;SDS011;52467;40.114;18.306;2023-02-01T05:07:32;2.47;;;1.33;;
42192;SDS011;52467;40.114;18.306;2023-02-01T05:10:00;4.07;;;1.33;;
42192;SDS011;52467;40.114;18.306;2023-02-01T05:12:27;3.40;;;1.40;;
42192;SDS011;52467;40.114;18.306;2023-02-01T05:15:13;1.80;;;1.23;;
42192;SDS011;52467;40.114;18.306;2023-02-01T05:17:40;3.92;;;1.33;;
42192;SDS011;52467;40.114;18.306;2023-02-01T05:20:08;9.05;;;1.60;;
42192;SDS011;52467;40.114;18.306;2023-02-01T05:22:36;2.92;;;1.73;;
42192;SDS011;52467;40.114;18.306;2023-02-01T05:25:03;4.82;;;1.75;;
42192;SDS011;52467;40.114;18.306;2023-02-01T05:27:33;6.57;;;1.42;;
42192;SDS011;52467;40.114;18.306;2023-02-01T05:30:02;3.75;;;2.03;;
42192;SDS011;52467;40.114;18.306;2023-02-01T05:32:32;2.38;;;1.55;;
42192;SDS011;52467;40.114;18.306;2023-02-01T05:35:00;6.43;;;2.40;;
42192;SDS011;52467;40.114;18.306;2023-02-01T05:37:27;4.40;;;1.50;;
42192;SDS011;52467;40.114;18.306;2023-02-01T05:39:55;4.20;;;1.70;;
42192;SDS011;52467;40.114;18.306;2023-02-01T05:42:22;3.78;;;1.70;;
42192;SDS011;52467;40.114;18.306;2023-02-01T05:44:49;4.03;;;1.70;;
42192;SDS011;52467;40.114;18.306;2023-02-01T05:47:16;2.70;;;1.48;;
42192;SDS011;52467;40.114;18.306;2023-02-01T05:49:44;6.78;;;1.83;;
42192;SDS011;52467;40.114;18.306;2023-02-01T05:52:11;3.85;;;1.98;;
42192;SDS011;52467;40.114;18.306;2023-02-01T05:54:39;5.97;;;2.22;;
42192;SDS011;52467;40.114;18.306;2023-02-01T05:57:07;5.10;;;2.05;;
42192;SDS011;52467;40.114;18.306;2023-02-01T05:59:34;4.70;;;2.25;;
42192;SDS011;52467;40.114;18.306;2023-02-01T06:02:03;5.68;;;2.30;;
42192;SDS011;52467;40.114;18.306;2023-02-01T06:04:31;7.03;;;2.05;;
42192;SDS011;52467;40.114;18.306;2023-02-01T06:06:58;9.57;;;2.92;;
42192;SDS011;52467;40.114;18.306;2023-02-01T06:09:25;5.78;;;2.70;;
42192;SDS011;52467;40.114;18.306;2023-02-01T06:11:53;6.20;;;2.73;;
42192;SDS011;52467;40.114;18.306;2023-02-01T06:14:20;5.72;;;2.70;;
42192;SDS011;52467;40.114;18.306;2023-02-01T06:16:47;6.13;;;2.90;;
42192;SDS011;52467;40.114;18.306;2023-02-01T06:19:15;11.50;;;3.53;;
42192;SDS011;52467;40.114;18.306;2023-02-01T06:21:42;9.48;;;3.35;;
42192;SDS011;52467;40.114;18.306;2023-02-01T06:24:10;8.10;;;3.20;;
42192;SDS011;52467;40.114;18.306;2023-02-01T06:26:38;6.90;;;3.45;;
42192;SDS011;52467;40.114;18.306;2023-02-01T06:29:06;9.73;;;3.40;;
42192;SDS011;52467;40.114;18.306;2023-02-01T06:31:36;8.50;;;3.45;;
42192;SDS011;52467;40.114;18.306;2023-02-01T06:34:03;8.93;;;3.70;;
42192;SDS011;52467;40.114;18.306;2023-02-01T06:36:30;8.38;;;3.92;;
42192;SDS011;52467;40.114;18.306;2023-02-01T06:38:58;6.60;;;3.47;;
42192;SDS011;52467;40.114;18.306;2023-02-01T06:41:26;7.18;;;3.72;;
42192;SDS011;52467;40.114;18.306;2023-02-01T06:43:55;15.83;;;4.03;;
42192;SDS011;52467;40.114;18.306;2023-02-01T06:46:23;7.80;;;3.60;;
42192;SDS011;52467;40.114;18.306;2023-02-01T06:48:50;14.88;;;4.07;;
42192;SDS011;52467;40.114;18.306;2023-02-01T06:51:21;10.27;;;4.10;;
42192;SDS011;52467;40.114;18.306;2023-02-01T06:53:50;11.50;;;4.50;;
42192;SDS011;52467;40.114;18.306;2023-02-01T06:56:17;9.32;;;4.20;;
42192;SDS011;52467;40.114;18.306;2023-02-01T06:58:46;11.48;;;4.93;;
42192;SDS011;52467;40.114;18.306;2023-02-01T07:01:14;12.25;;;4.78;;
42192;SDS011;52467;40.114;18.306;2023-02-01T07:03:42;11.35;;;4.60;;
42192;SDS011;52467;40.114;18.306;2023-02-01T07:06:09;14.45;;;5.03;;
42192;SDS011;52467;40.114;18.306;2023-02-01T07:08:37;11.55;;;4.72;;
42192;SDS011;52467;40.114;18.306;2023-02-01T07:11:06;10.65;;;3.83;;
42192;SDS011;52467;40.114;18.306;2023-02-01T07:13:35;11.07;;;4.35;;
42192;SDS011;52467;40.114;18.306;2023-02-01T07:16:03;9.63;;;3.80;;
42192;SDS011;52467;40.114;18.306;2023-02-01T07:18:34;13.65;;;4.25;;
42192;SDS011;52467;40.114;18.306;2023-02-01T07:21:01;12.50;;;4.47;;
42192;SDS011;52467;40.114;18.306;2023-02-01T07:23:29;13.93;;;4.37;;
42192;SDS011;52467;40.114;18.306;2023-02-01T07:25:56;13.00;;;4.68;;
42192;SDS011;52467;40.114;18.306;2023-02-01T07:28:25;15.43;;;4.78;;
42192;SDS011;52467;40.114;18.306;2023-02-01T07:30:53;13.30;;;4.68;;
42192;SDS011;52467;40.114;18.306;2023-02-01T07:33:21;14.75;;;4.63;;
42192;SDS011;52467;40.114;18.306;2023-02-01T07:35:50;18.75;;;5.25;;
42192;SDS011;52467;40.114;18.306;2023-02-01T07:38:18;13.52;;;5.85;;
42192;SDS011;52467;40.114;18.306;2023-02-01T07:40:48;12.23;;;5.63;;
42192;SDS011;52467;40.114;18.306;2023-02-01T07:43:15;17.33;;;6.00;;
42192;SDS011;52467;40.114;18.306;2023-02-01T07:45:43;10.90;;;4.97;;
42192;SDS011;52467;40.114;18.306;2023-02-01T07:48:16;14.98;;;4.75;;
42192;SDS011;52467;40.114;18.306;2023-02-01T07:50:44;12.18;;;4.68;;
42192;SDS011;52467;40.114;18.306;2023-02-01T07:53:11;12.27;;;4.20;;
42192;SDS011;52467;40.114;18.306;2023-02-01T07:55:38;12.68;;;4.28;;
42192;SDS011;52467;40.114;18.306;2023-02-01T07:58:06;11.43;;;3.92;;
42192;SDS011;52467;40.114;18.306;2023-02-01T08:00:34;10.70;;;4.10;;
42192;SDS011;52467;40.114;18.306;2023-02-01T08:03:20;11.13;;;4.00;;
42192;SDS011;52467;40.114;18.306;2023-02-01T08:05:48;16.50;;;5.18;;
42192;SDS011;52467;40.114;18.306;2023-02-01T08:08:20;10.70;;;4.33;;
42192;SDS011;52467;40.114;18.306;2023-02-01T08:10:47;8.85;;;4.28;;
42192;SDS011;52467;40.114;18.306;2023-02-01T08:13:15;9.57;;;4.37;;
42192;SDS011;52467;40.114;18.306;2023-02-01T08:15:42;11.75;;;3.85;;
42192;SDS011;52467;40.114;18.306;2023-02-01T08:18:09;11.70;;;4.22;;
42192;SDS011;52467;40.114;18.306;2023-02-01T08:20:37;9.73;;;3.35;;
42192;SDS011;52467;40.114;18.306;2023-02-01T08:23:08;12.47;;;3.50;;
42192;SDS011;52467;40.114;18.306;2023-02-01T08:25:35;6.78;;;3.03;;
42192;SDS011;52467;40.114;18.306;2023-02-01T08:28:03;6.03;;;2.70;;
42192;SDS011;52467;40.114;18.306;2023-02-01T08:30:30;5.97;;;2.50;;
42192;SDS011;52467;40.114;18.306;2023-02-01T08:32:57;5.95;;;2.40;;
42192;SDS011;52467;40.114;18.306;2023-02-01T08:35:25;6.40;;;2.63;;
42192;SDS011;52467;40.114;18.306;2023-02-01T08:38:07;10.18;;;2.80;;
42192;SDS011;52467;40.114;18.306;2023-02-01T08:40:34;9.20;;;3.05;;
42192;SDS011;52467;40.114;18.306;2023-02-01T08:43:02;7.72;;;2.45;;
42192;SDS011;52467;40.114;18.306;2023-02-01T08:45:29;7.90;;;2.35;;
42192;SDS011;52467;40.114;18.306;2023-02-01T08:47:57;11.30;;;2.63;;
42192;SDS011;52467;40.114;18.306;2023-02-01T08:50:24;7.20;;;2.30;;
42192;SDS011;52467;40.114;18.306;2023-02-01T08:52:52;6.80;;;2.50;;
42192;SDS011;52467;40.114;18.306;2023-02-01T08:55:20;7.47;;;2.38;;
42192;SDS011;52467;40.114;18.306;2023-02-01T08:57:47;6.17;;;2.40;;
42192;SDS011;52467;40.114;18.306;2023-02-01T09:00:15;5.05;;;1.90;;
42192;SDS011;52467;40.114;18.306;2023-02-01T09:02:43;5.15;;;2.00;;
42192;SDS011;52467;40.114;18.306;2023-02-01T09:05:11;5.78;;;2.00;;
42192;SDS011;52467;40.114;18.306;2023-02-01T09:07:40;5.60;;;2.00;;
42192;SDS011;52467;40.114;18.306;2023-02-01T09:10:08;6.80;;;1.90;;
42192;SDS011;52467;40.114;18.306;2023-02-01T09:12:35;4.60;;;1.83;;
42192;SDS011;52467;40.114;18.306;2023-02-01T09:15:04;10.43;;;1.90;;
42192;SDS011;52467;40.114;18.306;2023-02-01T09:17:33;6.90;;;2.10;;
42192;SDS011;52467;40.114;18.306;2023-02-01T09:20:01;3.60;;;1.95;;
42192;SDS011;52467;40.114;18.306;2023-02-01T09:22:28;6.63;;;2.08;;
42192;SDS011;52467;40.114;18.306;2023-02-01T09:24:56;6.30;;;2.40;;
42192;SDS011;52467;40.114;18.306;2023-02-01T09:27:23;8.77;;;2.25;;
42192;SDS011;52467;40.114;18.306;2023-02-01T09:29:51;5.93;;;2.43;;
42192;SDS011;52467;40.114;18.306;2023-02-01T09:32:19;8.30;;;2.35;;
42192;SDS011;52467;40.114;18.306;2023-02-01T09:34:51;3.58;;;1.90;;
42192;SDS011;52467;40.114;18.306;2023-02-01T09:37:19;4.82;;;2.22;;
42192;SDS011;52467;40.114;18.306;2023-02-01T09:39:47;5.22;;;1.55;;
42192;SDS011;52467;40.114;18.306;2023-02-01T09:47:43;5.45;;;2.05;;
42192;SDS011;52467;40.114;18.306;2023-02-01T09:50:16;4.37;;;2.07;;
42192;SDS011;52467;40.114;18.306;2023-02-01T09:52:54;5.18;;;2.00;;
42192;SDS011;52467;40.114;18.306;2023-02-01T09:55:27;6.35;;;2.03;;
42192;SDS011;52467;40.114;18.306;2023-02-01T10:00:59;3.83;;;1.75;;
42192;SDS011;52467;40.114;18.306;2023-02-01T10:03:34;5.90;;;1.83;;
42192;SDS011;52467;40.114;18.306;2023-02-01T10:11:46;5.35;;;2.50;;
42192;SDS011;52467;40.114;18.306;2023-02-01T10:17:04;5.25;;;2.00;;
42192;SDS011;52467;40.114;18.306;2023-02-01T10:25:44;5.30;;;2.35;;
42192;SDS011;52467;40.114;18.306;2023-02-01T10:28:23;3.55;;;2.05;;
42192;SDS011;52467;40.114;18.306;2023-02-01T10:30:54;4.20;;;2.13;;
42192;SDS011;52467;40.114;18.306;2023-02-01T10:33:44;7.33;;;2.50;;
42192;SDS011;52467;40.114;18.306;2023-02-01T10:36:27;5.80;;;2.35;;
42192;SDS011;52467;40.114;18.306;2023-02-01T10:38:59;8.05;;;2.63;;
42192;SDS011;52467;40.114;18.306;2023-02-01T10:41:31;6.55;;;2.22;;
42192;SDS011;52467;40.114;18.306;2023-02-01T10:44:02;4.80;;;1.90;;
42192;SDS011;52467;40.114;18.306;2023-02-01T10:46:31;5.47;;;2.00;;
42192;SDS011;52467;40.114;18.306;2023-02-01T10:49:00;6.03;;;2.05;;
42192;SDS011;52467;40.114;18.306;2023-02-01T10:54:03;6.45;;;2.20;;
42192;SDS011;52467;40.114;18.306;2023-02-01T10:56:58;6.57;;;2.20;;
42192;SDS011;52467;40.114;18.306;2023-02-01T10:59:28;4.40;;;2.13;;
42192;SDS011;52467;40.114;18.306;2023-02-01T11:02:00;7.28;;;2.40;;
42192;SDS011;52467;40.114;18.306;2023-02-01T11:04:30;4.37;;;2.20;;
42192;SDS011;52467;40.114;18.306;2023-02-01T11:07:07;4.57;;;2.15;;
42192;SDS011;52467;40.114;18.306;2023-02-01T11:09:40;5.53;;;2.45;;
42192;SDS011;52467;40.114;18.306;2023-02-01T11:12:20;4.60;;;2.53;;
42192;SDS011;52467;40.114;18.306;2023-02-01T11:14:50;6.45;;;2.58;;
42192;SDS011;52467;40.114;18.306;2023-02-01T11:17:21;5.00;;;2.50;;
42192;SDS011;52467;40.114;18.306;2023-02-01T11:20:00;6.18;;;2.72;;
42192;SDS011;52467;40.114;18.306;2023-02-01T11:22:29;6.00;;;2.40;;
42192;SDS011;52467;40.114;18.306;2023-02-01T11:24:56;4.43;;;2.25;;
42192;SDS011;52467;40.114;18.306;2023-02-01T11:27:25;6.35;;;2.35;;
42192;SDS011;52467;40.114;18.306;2023-02-01T11:29:56;3.90;;;2.03;;
42192;SDS011;52467;40.114;18.306;2023-02-01T11:32:26;3.77;;;2.10;;
42192;SDS011;52467;40.114;18.306;2023-02-01T11:34:56;4.93;;;2.10;;
42192;SDS011;52467;40.114;18.306;2023-02-01T11:40:03;5.43;;;2.33;;
42192;SDS011;52467;40.114;18.306;2023-02-01T11:42:56;6.38;;;3.10;;
42192;SDS011;52467;40.114;18.306;2023-02-01T11:45:27;6.38;;;3.20;;
42192;SDS011;52467;40.114;18.306;2023-02-01T11:47:57;5.20;;;2.70;;
42192;SDS011;52467;40.114;18.306;2023-02-01T11:50:44;6.68;;;2.78;;
42192;SDS011;52467;40.114;18.306;2023-02-01T11:58:58;4.63;;;2.33;;
42192;SDS011;52467;40.114;18.306;2023-02-01T12:04:52;5.55;;;2.03;;
42192;SDS011;52467;40.114;18.306;2023-02-01T12:16:01;4.70;;;2.05;;
42192;SDS011;52467;40.114;18.306;2023-02-01T12:24:44;6.75;;;1.90;;
42192;SDS011;52467;40.114;18.306;2023-02-01T12:38:57;3.77;;;1.80;;
42192;SDS011;52467;40.114;18.306;2023-02-01T12:41:47;4.70;;;1.70;;
42192;SDS011;52467;40.114;18.306;2023-02-01T12:44:25;5.50;;;2.10;;
42192;SDS011;52467;40.114;18.306;2023-02-01T12:47:16;4.20;;;1.95;;
42192;SDS011;52467;40.114;18.306;2023-02-01T12:52:39;3.13;;;1.63;;
42192;SDS011;52467;40.114;18.306;2023-02-01T12:57:53;7.32;;;2.03;;
42192;SDS011;52467;40.114;18.306;2023-02-01T13:00:30;2.70;;;1.50;;
42192;SDS011;52467;40.114;18.306;2023-02-01T13:08:14;4.55;;;1.98;;
42192;SDS011;52467;40.114;18.306;2023-02-01T13:16:46;4.97;;;1.77;;
42192;SDS011;52467;40.114;18.306;2023-02-01T13:21:56;2.75;;;1.60;;
42192;SDS011;52467;40.114;18.306;2023-02-01T13:24:40;4.15;;;1.83;;
42192;SDS011;52467;40.114;18.306;2023-02-01T13:27:26;4.32;;;1.92;;
42192;SDS011;52467;40.114;18.306;2023-02-01T13:30:05;3.70;;;1.90;;
42192;SDS011;52467;40.114;18.306;2023-02-01T13:33:03;3.70;;;1.65;;
42192;SDS011;52467;40.114;18.306;2023-02-01T13:36:00;5.90;;;1.73;;
42192;SDS011;52467;40.114;18.306;2023-02-01T13:44:25;5.95;;;2.35;;
42192;SDS011;52467;40.114;18.306;2023-02-01T13:47:09;6.85;;;2.10;;
42192;SDS011;52467;40.114;18.306;2023-02-01T13:50:42;8.80;;;4.60;;
42192;SDS011;52467;40.114;18.306;2023-02-01T13:52:55;4.88;;;2.60;;
42192;SDS011;52467;40.114;18.306;2023-02-01T13:55:38;7.07;;;2.38;;
42192;SDS011;52467;40.114;18.306;2023-02-01T14:00:42;5.60;;;2.30;;
42192;SDS011;52467;40.114;18.306;2023-02-01T14:03:12;7.15;;;3.28;;
42192;SDS011;52467;40.114;18.306;2023-02-01T14:08:15;6.95;;;2.70;;
42192;SDS011;52467;40.114;18.306;2023-02-01T14:10:54;6.22;;;2.00;;
42192;SDS011;52467;40.114;18.306;2023-02-01T14:13:39;4.28;;;2.00;;
42192;SDS011;52467;40.114;18.306;2023-02-01T14:16:11;4.35;;;2.13;;
42192;SDS011;52467;40.114;18.306;2023-02-01T15:01:18;5.00;;;2.50;;
42192;SDS011;52467;40.114;18.306;2023-02-01T15:06:32;9.00;;;3.17;;
42192;SDS011;52467;40.114;18.306;2023-02-01T15:09:02;4.47;;;2.70;;
42192;SDS011;52467;40.114;18.306;2023-02-01T15:14:38;7.97;;;3.63;;
42192;SDS011;52467;40.114;18.306;2023-02-01T15:17:25;7.85;;;4.15;;
42192;SDS011;52467;40.114;18.306;2023-02-01T15:22:51;12.02;;;6.03;;
42192;SDS011;52467;40.114;18.306;2023-02-01T15:25:33;12.82;;;6.43;;
42192;SDS011;52467;40.114;18.306;2023-02-01T15:28:05;10.47;;;5.50;;
42192;SDS011;52467;40.114;18.306;2023-02-01T15:30:39;9.38;;;5.18;;
42192;SDS011;52467;40.114;18.306;2023-02-01T15:35:47;11.33;;;5.83;;
42192;SDS011;52467;40.114;18.306;2023-02-01T15:44:10;15.05;;;7.53;;
42192;SDS011;52467;40.114;18.306;2023-02-01T15:49:02;24.00;;;11.33;;
42192;SDS011;52467;40.114;18.306;2023-02-01T15:51:30;23.10;;;12.75;;
42192;SDS011;52467;40.114;18.306;2023-02-01T15:54:00;21.75;;;11.60;;
42192;SDS011;52467;40.114;18.306;2023-02-01T15:56:36;23.33;;;12.10;;
42192;SDS011;52467;40.114;18.306;2023-02-01T15:59:05;24.33;;;10.45;;
42192;SDS011;52467;40.114;18.306;2023-02-01T16:01:40;21.43;;;12.20;;
42192;SDS011;52467;40.114;18.306;2023-02-01T16:04:22;26.83;;;15.57;;
42192;SDS011;52467;40.114;18.306;2023-02-01T16:06:55;30.57;;;16.97;;
42192;SDS011;52467;40.114;18.306;2023-02-01T16:09:25;24.77;;;15.48;;
42192;SDS011;52467;40.114;18.306;2023-02-01T16:12:03;18.25;;;11.50;;
42192;SDS011;52467;40.114;18.306;2023-02-01T16:14:31;17.80;;;10.32;;
42192;SDS011;52467;40.114;18.306;2023-02-01T16:16:58;15.23;;;8.87;;
42192;SDS011;52467;40.114;18.306;2023-02-01T16:19:26;15.05;;;9.63;;
42192;SDS011;52467;40.114;18.306;2023-02-01T16:21:55;12.80;;;8.10;;
42192;SDS011;52467;40.114;18.306;2023-02-01T16:24:22;16.38;;;9.13;;
42192;SDS011;52467;40.114;18.306;2023-02-01T16:26:52;18.30;;;10.07;;
42192;SDS011;52467;40.114;18.306;2023-02-01T16:29:19;17.35;;;10.15;;
42192;SDS011;52467;40.114;18.306;2023-02-01T16:31:48;19.55;;;10.77;;
42192;SDS011;52467;40.114;18.306;2023-02-01T16:34:16;18.88;;;10.48;;
42192;SDS011;52467;40.114;18.306;2023-02-01T16:36:44;30.13;;;13.45;;
42192;SDS011;52467;40.114;18.306;2023-02-01T16:39:18;24.17;;;12.45;;
42192;SDS011;52467;40.114;18.306;2023-02-01T16:41:46;37.55;;;19.50;;
42192;SDS011;52467;40.114;18.306;2023-02-01T16:44:14;42.17;;;20.15;;
42192;SDS011;52467;40.114;18.306;2023-02-01T16:46:42;33.17;;;17.92;;
42192;SDS011;52467;40.114;18.306;2023-02-01T16:49:25;34.05;;;17.50;;
42192;SDS011;52467;40.114;18.306;2023-02-01T16:51:56;34.13;;;17.73;;
42192;SDS011;52467;40.114;18.306;2023-02-01T16:54:24;34.97;;;18.45;;
42192;SDS011;52467;40.114;18.306;2023-02-01T16:56:53;36.13;;;17.63;;
42192;SDS011;52467;40.114;18.306;2023-02-01T16:59:20;32.53;;;17.08;;
42192;SDS011;52467;40.114;18.306;2023-02-01T17:01:48;33.83;;;17.98;;
42192;SDS011;52467;40.114;18.306;2023-02-01T17:04:15;32.58;;;17.08;;
42192;SDS011;52467;40.114;18.306;2023-02-01T17:06:44;35.35;;;18.13;;
42192;SDS011;52467;40.114;18.306;2023-02-01T17:09:13;33.83;;;17.02;;
42192;SDS011;52467;40.114;18.306;2023-02-01T17:11:41;32.83;;;17.47;;
42192;SDS011;52467;40.114;18.306;2023-02-01T17:14:16;35.25;;;17.73;;
42192;SDS011;52467;40.114;18.306;2023-02-01T17:16:45;33.15;;;16.23;;
42192;SDS011;52467;40.114;18.306;2023-02-01T17:19:14;31.90;;;16.90;;
42192;SDS011;52467;40.114;18.306;2023-02-01T17:21:44;34.45;;;19.13;;
42192;SDS011;52467;40.114;18.306;2023-02-01T17:24:16;34.28;;;19.88;;
42192;SDS011;52467;40.114;18.306;2023-02-01T17:26:44;40.80;;;20.83;;
42192;SDS011;52467;40.114;18.306;2023-02-01T17:29:12;31.67;;;18.90;;
42192;SDS011;52467;40.114;18.306;2023-02-01T17:31:41;32.95;;;18.13;;
42192;SDS011;52467;40.114;18.306;2023-02-01T17:34:10;32.38;;;17.52;;
42192;SDS011;52467;40.114;18.306;2023-02-01T17:36:40;37.35;;;17.40;;
42192;SDS011;52467;40.114;18.306;2023-02-01T17:39:08;34.90;;;17.48;;
42192;SDS011;52467;40.114;18.306;2023-02-01T17:41:36;32.17;;;17.30;;
42192;SDS011;52467;40.114;18.306;2023-02-01T17:44:03;29.70;;;15.55;;
42192;SDS011;52467;40.114;18.306;2023-02-01T17:46:31;23.85;;;14.05;;
42192;SDS011;52467;40.114;18.306;2023-02-01T17:48:58;23.23;;;13.13;;
42192;SDS011;52467;40.114;18.306;2023-02-01T17:51:27;29.42;;;14.73;;
42192;SDS011;52467;40.114;18.306;2023-02-01T17:53:55;23.85;;;12.80;;
42192;SDS011;52467;40.114;18.306;2023-02-01T17:56:23;30.70;;;14.30;;
42192;SDS011;52467;40.114;18.306;2023-02-01T17:58:51;28.80;;;15.68;;